Date,TemperatureHighF,TemperatureAvgF,TemperatureLowF,DewpointHighF,DewpointAvgF,DewpointLowF,HumidityHigh,HumidityAvg,HumidityLow,PressureMaxIn,PressureMinIn,WindSpeedMaxMPH,WindSpeedAvgMPH,GustSpeedMaxMPH,PrecipitationSumIn
2013-1-1,47.0,38.3,26.0,27.0,17.3,5.0,95,48,23,0.00,40.00,16,9,32,0.00
2013-1-2,51.0,44.8,39.0,9.0,3.6,0.0,27,18,12,0.00,40.00,19,11,31,0.00
2013-1-3,54.0,47.4,42.0,7.0,1.4,-4.0,20,15,12,0.00,40.00,14,8,24,0.00
2013-1-4,57.0,43.9,26.0,18.0,3.1,-5.0,58,22,9,0.00,40.00,12,5,18,0.00
2013-1-5,59.0,38.5,22.0,24.0,13.3,0.0,79,44,10,0.00,40.00,6,2,11,0.00
2013-1-6,44.0,34.7,23.0,38.0,30.0,19.0,95,83,65,0.00,40.00,8,3,19,0.00
2013-1-7,53.0,39.1,26.0,36.0,28.7,15.0,95,72,22,0.00,40.00,14,4,24,0.00
2013-1-8,67.0,41.5,23.0,33.0,24.3,13.0,95,62,12,0.00,40.00,11,2,16,0.00
2013-1-9,67.0,49.4,32.0,41.0,29.6,23.0,94,53,20,0.00,40.00,7,2,12,0.00
2013-1-10,42.0,36.7,31.0,41.0,33.2,22.0,97,87,69,0.00,40.00,12,6,28,0.00
2013-1-11,39.0,30.8,21.0,26.0,19.7,12.0,93,67,34,0.00,40.00,7,3,17,0.00
2013-1-12,43.0,30.5,18.0,28.0,17.4,0.0,96,66,17,0.00,40.00,10,3,17,0.00
2013-1-13,43.0,32.3,21.0,24.0,17.2,9.0,91,58,27,0.00,40.00,8,3,16,0.00
2013-1-14,40.0,32.2,24.0,15.0,-2.8,-12.0,50,24,11,0.00,40.00,14,7,23,0.00
2013-1-15,46.0,39.4,30.0,10.0,3.3,-11.0,27,22,15,0.00,40.00,17,9,26,0.00
2013-1-16,56.0,49.8,44.0,16.0,13.2,10.0,28,23,19,0.00,40.00,16,9,34,0.00
2013-1-17,60.0,53.9,51.0,11.0,8.7,6.0,20,16,12,0.00,40.00,19,11,37,0.00
2013-1-18,65.0,55.6,51.0,13.0,10.0,7.0,19,16,12,0.00,40.00,14,10,25,0.00
2013-1-19,65.0,55.8,48.0,10.0,7.9,4.0,20,15,11,0.00,40.00,16,8,22,0.00
2013-1-20,65.0,51.0,33.0,16.0,6.6,-1.0,50,20,8,0.00,40.00,14,6,21,0.00
2013-1-21,69.0,55.5,32.0,13.0,-0.5,-8.0,45,12,5,0.00,40.00,16,6,20,0.00
2013-1-22,74.0,56.0,35.0,24.0,6.1,-5.0,55,17,5,0.00,40.00,10,4,17,0.00
2013-1-23,70.0,55.5,38.0,38.0,30.1,23.0,63,41,18,0.00,40.00,10,3,20,0.00
2013-1-24,61.0,55.1,51.0,52.0,44.3,29.0,88,68,36,0.00,40.00,9,3,18,0.00
2013-1-25,57.0,53.6,50.0,52.0,48.7,44.0,96,84,67,0.00,40.00,9,3,16,0.00
2013-1-26,53.0,50.3,48.0,51.0,48.9,47.0,97,95,89,0.00,40.00,8,3,12,0.00
2013-1-27,48.0,43.3,37.0,47.0,41.2,34.0,98,93,83,0.00,40.00,13,6,21,0.00
2013-1-28,43.0,37.2,28.0,35.0,30.9,20.0,96,80,41,0.00,40.00,9,4,17,0.00
2013-1-29,48.0,36.5,25.0,40.0,31.4,24.0,96,83,58,0.00,40.00,6,2,13,0.00
2013-1-30,61.0,50.8,34.0,39.0,27.9,22.0,94,44,25,0.00,40.00,13,6,27,0.00
2013-1-31,62.0,56.1,41.0,30.0,26.3,23.0,65,32,23,0.00,40.00,12,7,21,0.00
2013-2-1,68.0,50.3,32.0,38.0,27.7,14.0,80,48,13,0.00,40.00,6,3,12,0.00
2013-2-2,71.0,56.1,40.0,40.0,26.7,17.0,64,37,14,0.00,40.00,12,4,17,0.00
2013-2-3,61.0,51.8,38.0,44.0,40.2,32.0,94,67,39,0.00,40.00,7,2,14,0.00
2013-2-4,64.0,46.5,31.0,45.0,35.6,24.0,96,73,22,0.00,40.00,9,2,16,0.00
2013-2-5,62.0,45.2,31.0,46.0,34.8,25.0,97,74,24,0.00,40.00,8,2,17,0.00
2013-2-6,56.0,40.5,30.0,42.0,36.1,29.0,98,86,55,0.00,40.00,8,2,14,0.00
2013-2-7,60.0,42.9,27.0,45.0,32.5,11.0,96,74,15,0.00,40.00,9,3,16,0.00
2013-2-8,39.0,35.5,32.0,37.0,33.6,31.0,96,93,83,0.00,40.00,11,6,27,0.00
2013-2-9,40.0,34.8,31.0,34.0,30.9,29.0,97,86,67,0.00,40.00,9,3,17,0.00
2013-2-10,40.0,34.8,29.0,34.0,31.4,28.0,97,88,67,0.00,40.00,8,2,13,0.00
2013-2-11,45.0,35.3,27.0,34.0,26.8,11.0,95,74,25,0.00,40.00,7,2,12,0.00
2013-2-12,50.0,34.6,19.0,26.0,16.2,2.0,91,57,16,0.00,40.00,9,3,16,0.00
2013-2-13,59.0,40.2,23.0,33.0,22.5,11.0,89,58,15,0.00,40.00,11,3,18,0.00
2013-2-14,63.0,46.9,27.0,29.0,22.3,16.0,92,47,18,0.00,40.00,14,5,23,0.00
2013-2-15,62.0,57.2,53.0,17.0,9.3,0.0,22,15,10,0.00,40.00,16,7,30,0.00
2013-2-16,68.0,54.7,32.0,26.0,9.4,0.0,69,22,7,0.00,40.00,12,7,28,0.00
2013-2-17,59.0,40.4,23.0,37.0,22.7,9.0,89,59,14,0.00,40.00,9,2,18,0.00
2013-2-18,60.0,39.1,22.0,41.0,27.4,14.0,95,69,17,0.00,40.00,8,2,14,0.00
2013-2-19,39.0,35.8,28.0,38.0,33.5,27.0,97,92,80,0.00,40.00,12,5,23,0.00
2013-2-20,40.0,33.9,27.0,33.0,29.4,25.0,97,85,62,0.00,40.00,11,5,28,0.00
2013-2-21,42.0,32.0,23.0,35.0,29.6,22.0,97,91,68,0.00,40.00,9,2,12,0.00
2013-2-22,53.0,37.1,22.0,31.0,23.8,13.0,96,67,23,0.00,40.00,7,2,14,0.00
2013-2-23,55.0,39.0,24.0,31.0,25.7,19.0,95,65,26,0.00,40.00,7,2,16,0.00
2013-2-24,50.0,39.4,25.0,25.0,6.5,-5.0,93,35,10,0.00,40.00,16,7,28,0.00
2013-2-25,58.0,40.7,25.0,23.0,11.4,-5.0,82,37,8,0.00,40.00,11,3,19,0.00
2013-2-26,59.0,42.2,18.0,21.0,10.7,3.0,90,40,12,0.00,40.00,14,6,23,0.00
2013-2-27,57.0,47.9,31.0,16.0,4.9,-1.0,52,19,11,0.00,40.00,14,9,27,0.00
2013-2-28,63.0,52.1,32.0,16.0,3.6,-4.0,48,16,9,0.00,40.00,18,9,31,0.00
2013-3-1,68.0,60.7,52.0,15.0,9.0,4.0,23,13,11,28.73,25.37,17,10,30,0.00
2013-3-2,75.0,58.7,34.0,31.0,19.2,5.0,78,27,7,25.99,25.37,9,3,15,0.00
2013-3-3,66.0,47.2,30.0,32.0,24.3,13.0,84,49,13,26.02,25.37,12,3,18,0.00
2013-3-4,57.0,46.6,34.0,44.0,38.2,29.0,96,75,45,26.26,25.69,7,3,16,0.00
2013-3-5,62.0,47.3,33.0,47.0,38.0,30.0,97,74,31,26.28,25.55,14,3,21,0.00
2013-3-6,54.0,44.3,33.0,42.0,38.1,31.0,94,80,52,26.23,25.78,8,3,15,0.00
2013-3-7,47.0,40.9,31.0,43.0,36.7,30.0,95,85,61,26.23,25.84,10,3,17,0.00
2013-3-8,42.0,36.5,32.0,40.0,34.6,31.0,97,93,77,26.23,25.99,14,5,24,0.00
2013-3-9,44.0,38.2,31.0,39.0,36.1,30.0,97,92,79,26.23,26.05,9,4,17,0.00
2013-3-10,61.0,46.0,28.0,40.0,27.9,14.0,97,59,16,26.20,25.40,11,4,19,0.00
2013-3-11,69.0,48.1,27.0,38.0,26.1,12.0,92,55,12,26.11,25.37,9,3,15,0.00
2013-3-12,73.0,54.6,33.0,33.0,23.5,14.0,85,42,12,26.05,25.37,13,5,26,0.00
2013-3-13,79.0,63.5,39.0,41.0,25.2,15.0,77,30,9,25.99,25.43,14,6,20,0.00
2013-3-14,82.0,58.5,37.0,43.0,32.0,19.0,87,48,10,26.11,40.00,11,4,20,0.00
2013-3-15,78.0,57.2,38.0,44.0,35.8,23.0,90,54,14,0.00,40.00,6,2,15,0.00
2013-3-16,70.0,50.9,35.0,45.0,33.6,13.0,92,62,13,0.00,40.00,8,2,16,0.00
2013-3-17,69.0,49.2,32.0,48.0,37.2,27.0,94,70,23,0.00,40.00,8,2,13,0.00
2013-3-18,65.0,47.6,30.0,48.0,36.4,20.0,96,72,18,0.00,40.00,6,2,12,0.00
2013-3-19,66.0,50.3,32.0,48.0,37.0,29.0,95,67,28,0.00,40.00,9,3,17,0.00
2013-3-20,69.0,53.2,39.0,45.0,37.9,33.0,93,62,27,0.00,40.00,9,3,18,0.00
2013-3-21,63.0,48.4,36.0,47.0,39.0,34.0,94,74,37,0.00,40.00,9,3,15,0.00
2013-3-22,63.0,47.0,31.0,48.0,40.8,30.0,97,82,49,0.00,40.00,6,2,13,0.00
2013-3-23,67.0,48.8,27.0,47.0,31.4,11.0,97,64,11,0.00,40.00,15,4,22,0.00
2013-3-24,69.0,52.0,34.0,45.0,35.5,20.0,94,61,17,0.00,40.00,7,3,14,0.00
2013-3-25,73.0,53.5,34.0,46.0,35.2,22.0,89,58,16,0.00,40.00,7,2,14,0.00
2013-3-26,67.0,49.6,33.0,40.0,32.1,16.0,94,60,15,0.00,40.00,8,2,19,0.00
2013-3-27,63.0,48.9,36.0,43.0,33.1,26.0,89,60,25,0.00,40.00,8,2,14,0.00
2013-3-28,67.0,52.1,34.0,43.0,36.5,26.0,95,62,24,0.00,40.00,8,3,17,0.00
2013-3-29,70.0,54.0,35.0,51.0,39.6,25.0,94,66,18,0.00,40.00,12,3,18,0.00
2013-3-30,67.0,54.9,42.0,49.0,41.6,-99.9,92,67,29,0.00,40.00,7,3,15,0.00
2013-3-31,60.0,48.7,34.0,47.0,41.0,33.0,95,77,45,0.00,40.00,10,3,19,0.00
2013-4-1,56.0,47.0,37.0,45.0,40.8,35.0,95,81,54,0.00,40.00,10,4,22,0.00
2013-4-2,62.0,51.0,43.0,49.0,44.4,40.0,96,79,56,0.00,40.00,7,3,15,0.00
2013-4-3,75.0,55.0,35.0,48.0,36.0,23.0,95,58,16,0.00,40.00,7,2,15,0.00
2013-4-4,70.0,54.5,36.0,42.0,36.1,27.0,89,56,21,0.00,40.00,8,3,16,0.00
2013-4-5,62.0,50.7,36.0,48.0,44.2,35.0,96,80,50,0.00,40.00,8,3,18,0.00
2013-4-6,63.0,50.4,35.0,49.0,43.9,34.0,97,81,49,0.00,40.00,7,3,15,0.00
2013-4-7,65.0,50.8,33.0,50.0,43.3,32.0,97,78,51,0.00,40.00,9,3,14,0.00
2013-4-8,47.0,43.1,39.0,46.0,40.2,34.0,97,90,75,0.00,40.00,11,6,21,0.00
2013-4-9,57.0,44.6,33.0,41.0,32.6,23.0,96,68,28,0.00,40.00,10,4,21,0.00
2013-4-10,67.0,49.3,28.0,28.0,21.4,10.0,90,44,11,0.00,40.00,13,4,23,0.00
2013-4-11,68.0,52.0,29.0,46.0,31.0,16.0,84,52,15,0.00,40.00,11,4,18,0.00
2013-4-12,75.0,54.3,34.0,49.0,35.3,17.0,87,58,11,0.00,40.00,10,3,21,0.00
2013-4-13,71.0,54.2,35.0,48.0,38.5,25.0,92,62,18,0.00,40.00,9,3,15,0.00
2013-4-14,58.0,45.9,31.0,46.0,40.2,29.0,96,82,60,0.00,40.00,10,4,16,0.00
2013-4-15,49.0,44.9,42.0,46.0,43.1,40.0,97,94,78,0.00,40.00,8,5,15,0.00
2013-4-16,46.0,40.9,34.0,40.0,34.9,30.0,92,80,58,0.00,40.00,12,5,19,0.00
2013-4-17,60.0,44.7,31.0,37.0,24.5,15.0,95,54,17,0.00,40.00,13,4,23,0.00
2013-4-18,63.0,51.2,32.0,22.0,9.0,0.0,63,21,10,0.00,40.00,13,7,26,0.00
2013-4-19,75.0,58.5,33.0,24.0,8.3,-1.0,53,17,6,0.00,40.00,14,6,24,0.00
2013-4-20,80.0,57.9,30.0,36.0,22.5,12.0,69,35,9,0.00,40.00,13,3,22,0.00
2013-4-21,78.0,60.3,38.0,39.0,30.8,23.0,75,41,14,0.00,40.00,7,3,15,0.00
2013-4-22,72.0,55.4,33.0,47.0,34.1,18.0,89,53,14,0.00,40.00,8,3,15,0.00
2013-4-23,76.0,55.0,32.0,48.0,37.7,28.0,93,60,23,0.00,40.00,9,3,15,0.00
2013-4-24,71.0,52.8,43.0,49.0,44.3,27.0,97,78,21,0.00,40.00,10,4,17,0.00
2013-4-25,62.0,49.4,40.0,46.0,42.7,37.0,97,79,50,0.00,40.00,7,4,14,0.00
2013-4-26,73.0,54.5,32.0,47.0,38.9,31.0,95,62,26,0.00,40.00,7,3,14,0.00
2013-4-27,79.0,58.6,35.0,48.0,35.2,22.0,84,52,13,0.00,40.00,9,3,18,0.00
2013-4-28,80.0,60.4,37.0,46.0,34.1,19.0,85,49,10,0.00,40.00,10,4,20,0.00
2013-4-29,79.0,61.3,37.0,44.0,33.2,19.0,83,44,13,0.00,40.00,6,2,14,0.00
2013-4-30,70.0,59.3,35.0,50.0,41.8,19.0,96,58,15,0.00,40.00,10,4,15,0.00
2013-5-1,79.0,61.4,35.0,47.0,26.0,-1.0,97,45,7,0.00,40.00,12,5,24,0.00
2013-5-2,76.0,68.6,60.0,2.0,-5.0,-10.0,8,5,4,0.00,40.00,15,9,28,0.00
2013-5-3,82.0,67.4,50.0,31.0,8.1,-8.0,41,12,5,0.00,40.00,13,5,20,0.00
2013-5-4,73.0,55.5,35.0,46.0,27.4,3.0,74,41,7,0.00,40.00,9,3,19,0.00
2013-5-5,58.0,46.9,35.0,48.0,40.1,29.0,92,78,58,0.00,40.00,12,4,18,0.00
2013-5-6,51.0,48.4,47.0,49.0,46.8,45.0,97,94,87,0.00,40.00,13,6,21,0.00
2013-5-7,52.0,48.2,46.0,47.0,44.3,42.0,96,86,70,0.00,40.00,11,5,22,0.00
2013-5-8,56.0,47.7,40.0,47.0,43.5,38.0,95,86,65,0.00,40.00,7,3,15,0.00
2013-5-9,59.0,51.7,46.0,50.0,46.8,43.0,96,84,66,0.00,40.00,7,3,14,0.00
2013-5-10,73.0,57.9,40.0,52.0,44.1,-99.9,97,69,23,0.00,40.00,8,3,17,0.00
2013-5-11,84.0,67.1,45.0,48.0,36.2,-99.9,93,45,12,0.00,40.00,12,4,25,0.00
2013-5-12,87.0,71.2,47.0,44.0,32.3,20.0,75,34,9,0.00,40.00,9,4,21,0.00
2013-5-13,89.0,70.9,48.0,46.0,35.1,25.0,74,36,11,0.00,40.00,9,3,21,0.00
2013-5-14,83.0,64.4,44.0,45.0,32.1,15.0,88,42,8,0.00,40.00,9,3,19,0.00
2013-5-15,73.0,57.2,35.0,48.0,36.9,24.0,86,54,17,0.00,40.00,9,3,14,0.00
2013-5-16,72.0,52.5,38.0,50.0,25.0,-99.9,91,62,22,0.00,40.00,9,3,15,0.00
2013-5-17,65.0,53.0,43.0,51.0,43.0,-99.9,94,78,51,0.00,40.00,10,4,18,0.00
2013-5-18,68.0,55.8,45.0,50.0,46.5,42.0,95,74,44,0.00,40.00,6,3,15,0.00
2013-5-19,73.0,57.4,37.0,52.0,44.3,35.0,95,67,30,0.00,40.00,7,3,14,0.00
2013-5-20,82.0,63.6,43.0,52.0,40.3,19.0,93,54,11,0.00,40.00,12,3,20,0.00
2013-5-21,79.0,65.4,46.0,50.0,40.8,25.0,87,47,14,0.00,40.00,7,3,16,0.00
2013-5-22,72.0,56.3,38.0,47.0,38.2,16.0,92,59,14,0.00,40.00,10,4,18,0.00
2013-5-23,65.0,49.8,31.0,46.0,35.5,24.0,92,63,27,0.00,40.00,9,3,17,0.00
2013-5-24,69.0,51.6,29.0,45.0,32.8,-1.0,90,56,7,0.00,40.00,9,3,13,0.00
2013-5-25,68.0,51.5,30.0,47.0,34.4,9.0,90,60,12,0.00,40.00,10,3,16,0.00
2013-5-26,68.0,51.0,30.0,46.0,35.1,18.0,93,61,20,0.00,40.00,8,3,15,0.00
2013-5-27,70.0,54.0,36.0,50.0,41.4,34.0,92,67,32,0.00,40.00,7,3,14,0.00
2013-5-28,68.0,54.6,39.0,53.0,45.7,37.0,94,75,46,0.00,40.00,9,3,18,0.00
2013-5-29,78.0,60.9,40.0,52.0,44.5,38.0,95,62,28,0.00,40.00,8,3,16,0.00
2013-5-30,78.0,61.5,41.0,51.0,44.8,39.0,93,60,31,0.00,40.00,7,3,14,0.00
2013-5-31,83.0,64.4,40.0,53.0,42.5,24.0,88,53,13,0.00,40.00,6,3,13,0.00
2013-6-1,92.0,70.9,47.0,53.0,40.0,18.0,84,45,7,0.00,40.00,12,4,22,0.00
2013-6-2,82.0,66.8,47.0,54.0,41.2,29.0,76,46,15,0.00,40.00,8,3,18,0.00
2013-6-3,77.0,61.2,42.0,52.0,42.8,30.0,83,56,20,0.00,40.00,10,3,16,0.00
2013-6-4,76.0,59.1,37.0,51.0,38.8,16.0,84,53,12,0.00,40.00,11,3,15,0.00
2013-6-5,79.0,60.5,36.0,53.0,37.6,12.0,86,51,9,0.00,40.00,8,3,14,0.00
2013-6-6,80.0,61.4,38.0,54.0,40.8,23.0,89,55,14,0.00,40.00,7,3,17,0.00
2013-6-7,83.0,64.8,42.0,54.0,45.5,31.0,87,56,24,0.00,40.00,7,3,15,0.00
2013-6-8,83.0,66.5,46.0,53.0,46.1,34.0,84,53,18,0.00,40.00,7,3,15,0.00
2013-6-9,83.0,66.2,42.0,47.0,34.6,8.0,74,38,6,0.00,40.00,9,3,17,0.00
2013-6-10,78.0,70.4,52.0,50.0,36.7,11.0,71,36,9,0.00,40.00,15,6,23,0.00
2013-6-11,89.0,67.5,44.0,54.0,37.0,14.0,71,42,7,0.00,40.00,7,2,14,0.00
2013-6-12,80.0,70.0,48.0,53.0,46.8,37.0,76,47,23,0.00,40.00,8,4,15,0.00
2013-6-13,81.0,69.0,39.0,51.0,39.4,13.0,79,41,9,0.00,40.00,8,4,17,0.00
2013-6-14,82.0,69.1,37.0,47.0,35.3,2.0,88,37,5,0.00,40.00,7,3,15,0.00
2013-6-15,78.0,63.9,32.0,48.0,31.2,2.0,70,37,6,0.00,40.00,8,4,16,0.00
2013-6-16,80.0,69.3,32.0,49.0,33.1,3.0,72,33,6,0.00,40.00,8,4,16,0.00
2013-6-17,82.0,69.6,39.0,47.0,36.7,25.0,81,36,13,0.00,40.00,7,4,16,0.00
2013-6-18,80.0,68.8,39.0,51.0,37.7,25.0,81,38,14,0.00,40.00,8,3,15,0.00
2013-6-19,79.0,66.3,37.0,48.0,35.6,12.0,87,40,10,0.00,40.00,10,4,15,0.00
2013-6-20,80.0,62.1,36.0,46.0,29.2,18.0,81,39,10,0.00,40.00,6,3,15,0.00
2013-6-21,78.0,75.5,73.0,41.0,38.2,32.0,30,26,19,0.00,40.00,5,4,12,0.00
2013-7-3,88.0,82.3,68.0,51.0,43.6,39.0,54,27,19,0.00,40.00,8,4,16,0.00
2013-7-4,88.0,82.7,67.0,53.0,43.5,31.0,59,28,14,0.00,40.00,7,4,16,0.00
2013-7-5,87.0,77.4,62.0,56.0,48.3,35.0,73,40,17,0.00,40.00,7,4,14,0.00
2013-7-6,84.0,74.6,62.0,58.0,53.4,47.0,78,51,29,0.00,40.00,7,3,15,0.00
2013-7-7,88.0,80.8,62.0,55.0,47.1,39.0,78,33,21,0.00,40.00,7,4,16,0.00
2013-7-8,92.0,83.3,72.0,45.0,33.2,-99.9,36,19,10,0.00,40.00,8,4,16,0.00
2013-7-9,92.0,84.8,73.0,53.0,43.6,27.0,50,27,10,0.00,40.00,7,4,16,0.00
2013-7-10,83.0,72.1,67.0,57.0,49.4,-99.9,65,48,28,0.00,40.00,6,2,11,0.00
2013-7-11,75.0,69.6,63.0,60.0,56.0,51.0,83,62,53,0.00,40.00,6,2,11,0.00
2013-7-12,82.0,70.5,59.0,59.0,55.8,50.0,89,63,35,0.00,40.00,8,3,17,0.00
2013-7-13,84.0,76.7,60.0,55.0,49.0,40.0,84,40,21,0.00,40.00,8,4,17,0.00
2013-7-14,88.0,80.1,64.0,53.0,47.8,41.0,60,34,21,0.00,40.00,7,4,18,0.00
2013-7-15,85.0,79.6,66.0,47.0,43.1,37.0,49,29,18,0.00,40.00,10,5,20,0.00
2013-7-16,85.0,78.7,61.0,40.0,28.3,18.0,33,17,9,0.00,40.00,11,5,19,0.00
2013-7-17,87.0,80.5,62.0,39.0,24.3,0.0,42,15,4,0.00,40.00,7,4,14,0.00
2013-7-18,88.0,79.9,63.0,46.0,37.8,24.0,54,25,11,0.00,40.00,8,4,16,0.00
2013-7-19,90.0,82.2,66.0,53.0,35.4,23.0,61,22,10,0.00,40.00,6,3,12,0.00
2013-7-20,84.0,75.3,65.0,63.0,53.3,-99.9,66,49,34,0.00,40.00,9,4,14,0.00
2013-7-21,78.0,70.7,63.0,66.0,61.8,53.0,94,75,51,0.00,40.00,10,3,16,0.00
2013-7-22,78.0,69.5,61.0,65.0,61.1,58.0,96,76,55,0.00,40.00,6,2,13,0.00
2013-7-23,81.0,69.8,58.0,61.0,58.4,56.0,95,70,45,0.00,40.00,7,3,15,0.00
2013-7-24,84.0,73.4,59.0,58.0,56.3,54.0,90,58,37,0.00,40.00,8,4,17,0.00
2013-7-25,86.0,79.1,62.0,56.0,50.1,43.0,82,39,22,0.00,40.00,7,3,15,0.00
2013-11-9,71.0,35.5,71.0,7.0,-46.5,-99.9,8,4,8,0.00,40.00,4,3,10,0.00
2013-11-10,70.0,68.8,67.0,16.0,14.4,13.0,13,12,11,0.00,40.00,5,4,10,0.00
2013-11-11,72.0,62.8,53.0,31.0,29.0,23.0,32,28,20,0.00,40.00,8,3,14,0.00
2013-11-12,75.0,69.4,62.0,27.0,23.6,19.0,22,18,15,0.00,40.00,7,5,11,0.00
2013-11-13,80.0,72.9,65.0,29.0,22.4,19.0,26,16,12,0.00,40.00,11,8,17,0.00
2013-11-14,78.0,69.7,56.0,34.0,23.0,17.0,43,19,11,0.00,40.00,8,4,14,0.00
2013-11-15,53.0,49.6,47.0,46.0,45.1,44.0,90,84,73,0.00,40.00,10,5,17,0.00
2013-11-16,47.0,41.9,44.0,44.0,32.1,-99.9,95,84,84,0.00,40.00,7,5,12,0.00
2013-11-17,57.0,47.3,34.0,44.0,39.3,32.0,93,75,57,0.00,40.00,5,2,11,0.00
2013-11-18,58.0,56.0,49.0,47.0,45.5,45.0,94,69,62,0.00,40.00,6,4,11,0.00
2013-11-19,51.0,48.5,47.0,46.0,45.1,44.0,95,88,78,0.00,40.00,5,3,9,0.00
2013-12-26,61.0,57.0,55.0,-1.0,-1.0,-1.0,10,9,8,0.00,40.00,15,12,26,0.00
2013-12-27,57.0,56.2,56.0,4.0,2.0,-4.0,12,11,8,0.00,40.00,7,7,14,0.00
2013-12-28,64.0,50.4,46.0,17.0,-6.6,-99.9,31,13,10,0.00,40.00,4,2,9,0.00
2013-12-29,57.0,54.0,48.0,7.0,3.2,-6.0,15,12,9,0.00,40.00,13,7,22,0.00
2013-12-30,53.0,53.0,53.0,-13.0,-13.0,-13.0,6,6,6,0.00,40.00,3,3,5,0.00
2013-12-31,67.0,63.1,56.0,7.0,4.4,-1.0,14,10,7,0.00,40.00,5,3,10,0.00
2014-1-1,68.0,60.8,58.0,14.0,10.8,7.0,17,14,9,0.00,40.00,10,8,20,0.00